Fort Gordon, Georgia
Current Conditions -  °F | °C
As of 2:53 PM on Thursday 30 Oct 2014 (Local Time) from KDNL Reporting Station
Clear Clear  
Wind Chill: 73°   Ceiling: Unl
Heat Index: 73°   Visibility: 10mi
Dew Point: 40°   Wind: 8mph
Humidity: 30%   Direction: 10°N
Pressure: 29.97"   Gusts: NA
Location:  33.364°N, 82.215°W
Report Text: KDNL 301853Z AUTO 01007KT 10SM CLR 23/04 A2997 RMK AO2 SLP143 T02280044
Loading
Personal Weather Stations






























Interactive Weather Map
Tropical Storm Tracking
New forecast layout! Learn more

10-Day Weather Forecast

Advertisements
Track Severe Weather on mobile